createdAt,value
2018-09-25T00:01:07.056Z,75.10
2018-09-25T00:03:40.991Z,72.10
2018-09-25T00:06:14.777Z,72.90
2018-09-25T00:08:48.310Z,74.90
2018-09-25T00:11:21.963Z,74.80
2018-09-25T00:13:56.304Z,73.80
2018-09-25T00:16:29.702Z,73.10
2018-09-25T00:19:03.244Z,73.50
2018-09-25T00:21:36.477Z,74.50
2018-09-25T00:24:09.724Z,73.30
2018-09-25T00:26:43.000Z,72.40
2018-09-25T00:29:17.309Z,71.00
2018-09-25T00:31:50.668Z,72.20
2018-09-25T00:34:23.888Z,71.60
2018-09-25T00:36:57.090Z,72.50
2018-09-25T00:39:30.436Z,72.30
2018-09-25T00:42:03.940Z,71.90
2018-09-25T00:44:37.028Z,71.90
2018-09-25T00:47:10.588Z,71.00
2018-09-25T00:49:44.293Z,71.00
2018-09-25T00:52:17.620Z,71.60
2018-09-25T00:54:51.285Z,71.30
2018-09-25T00:57:24.884Z,73.30
2018-09-25T00:59:58.220Z,73.60
2018-09-25T01:02:32.045Z,73.10
2018-09-25T01:05:05.336Z,71.10
2018-09-25T01:07:39.620Z,70.80
2018-09-25T01:10:13.440Z,70.50
2018-09-25T01:12:50.987Z,71.80
2018-09-25T01:15:24.490Z,72.00
2018-09-25T01:17:57.517Z,73.20
2018-09-25T01:20:31.692Z,72.20
2018-09-25T01:23:05.044Z,72.90
2018-09-25T01:25:38.300Z,72.50
2018-09-25T01:28:14.239Z,71.60
2018-09-25T01:30:47.567Z,71.30
2018-09-25T01:33:20.908Z,71.70
2018-09-25T01:35:54.162Z,72.90
2018-09-25T01:38:27.513Z,73.30
2018-09-25T01:41:01.023Z,71.00
2018-09-25T01:43:34.259Z,71.80
2018-09-25T01:46:07.511Z,72.40
2018-09-25T01:48:41.438Z,71.70
2018-09-25T01:51:15.215Z,71.30
2018-09-25T01:53:48.494Z,70.40
2018-09-25T01:56:22.855Z,70.90
2018-09-25T01:58:56.218Z,70.80
2018-09-25T02:01:29.521Z,69.50
2018-09-25T02:04:02.863Z,69.50
2018-09-25T02:06:37.457Z,70.10
2018-09-25T02:09:11.825Z,70.10
2018-09-25T02:11:45.987Z,70.40
2018-09-25T02:14:19.511Z,70.40
2018-09-25T02:16:53.231Z,70.60
2018-09-25T02:19:26.581Z,70.80
2018-09-25T02:21:59.950Z,70.70
2018-09-25T02:24:34.156Z,71.60
2018-09-25T02:27:07.334Z,70.50
2018-09-25T02:29:41.039Z,70.80
2018-09-25T02:32:14.240Z,71.20
2018-09-25T02:34:47.764Z,71.40
2018-09-25T02:37:21.907Z,71.60
2018-09-25T02:39:56.241Z,71.60
2018-09-25T02:42:29.464Z,71.50
2018-09-25T02:45:02.833Z,72.10
2018-09-25T02:47:36.615Z,72.60
2018-09-25T02:50:10.732Z,73.00
2018-09-25T02:52:44.500Z,73.50
2018-09-25T02:55:17.812Z,74.10
2018-09-25T02:57:51.798Z,73.70
2018-09-25T03:00:24.988Z,75.10
2018-09-25T03:02:58.212Z,75.10
2018-09-25T03:05:32.191Z,76.40
2018-09-25T03:08:06.155Z,75.10
2018-09-25T03:10:39.879Z,74.40
2018-09-25T03:13:13.332Z,76.90
2018-09-25T03:15:47.751Z,76.50
2018-09-25T03:18:20.991Z,76.60
2018-09-25T03:20:54.956Z,75.60
2018-09-25T03:23:29.484Z,77.00
2018-09-25T03:26:05.077Z,76.60
2018-09-25T03:28:38.720Z,76.80
2018-09-25T03:31:12.047Z,76.60
2018-09-25T03:33:45.432Z,76.80
2018-09-25T03:36:18.798Z,77.10
2018-09-25T03:38:52.100Z,77.00
2018-09-25T03:41:25.268Z,76.60
2018-09-25T03:43:58.903Z,77.00
2018-09-25T03:46:32.517Z,78.80
2018-09-25T03:49:06.060Z,77.90
2018-09-25T03:51:39.932Z,77.80
2018-09-25T03:54:13.740Z,77.70
2018-09-25T03:56:47.768Z,76.90
2018-09-25T03:59:20.799Z,77.80
2018-09-25T04:01:54.080Z,76.90
2018-09-25T04:04:27.304Z,75.80
2018-09-25T04:07:02.480Z,76.20
2018-09-25T04:09:35.621Z,76.60
2018-09-25T04:12:09.332Z,76.80
2018-09-25T04:14:43.104Z,76.70
2018-09-25T04:17:16.197Z,76.70
2018-09-25T04:19:49.474Z,77.30
2018-09-25T04:22:22.700Z,77.60
2018-09-25T04:24:57.676Z,76.90
2018-09-25T04:27:31.808Z,77.20
2018-09-25T04:30:05.080Z,77.80
2018-09-25T04:32:38.908Z,78.20
2018-09-25T04:35:12.263Z,76.80
2018-09-25T04:37:45.581Z,77.50
2018-09-25T04:40:18.856Z,77.10
2018-09-25T04:42:52.884Z,76.80
2018-09-25T04:45:27.388Z,77.70
2018-09-25T04:48:01.341Z,77.70
2018-09-25T04:50:34.589Z,77.30
2018-09-25T04:53:07.908Z,77.70
2018-09-25T04:55:41.199Z,76.90
2018-09-25T04:58:15.760Z,77.60
2018-09-25T05:00:49.504Z,77.80
2018-09-25T05:03:23.580Z,76.80
2018-09-25T05:05:58.104Z,77.50
2018-09-25T05:08:31.636Z,77.70
2018-09-25T05:11:05.432Z,77.30
2018-09-25T05:13:39.836Z,78.00
2018-09-25T05:16:12.972Z,76.20
2018-09-25T05:18:47.040Z,75.90
2018-09-25T05:21:20.230Z,76.30
2018-09-25T05:23:53.508Z,76.90
2018-09-25T05:26:26.729Z,77.20
2018-09-25T05:29:00.401Z,76.60
2018-09-25T05:31:33.677Z,77.60
2018-09-25T05:34:07.036Z,77.90
2018-09-25T05:36:40.084Z,78.80
2018-09-25T05:39:14.215Z,78.30
2018-09-25T05:41:48.087Z,78.10
2018-09-25T05:44:21.516Z,78.60
2018-09-25T05:46:55.975Z,79.10
2018-09-25T05:49:29.759Z,78.70
2018-09-25T05:52:03.080Z,79.50
2018-09-25T05:54:36.321Z,78.80
2018-09-25T05:57:09.509Z,79.60
2018-09-25T05:59:43.095Z,81.30
2018-09-25T06:02:17.332Z,79.60
2018-09-25T06:04:50.460Z,80.90
2018-09-25T06:07:24.039Z,81.50
2018-09-25T06:09:57.368Z,80.70
2018-09-25T06:12:31.114Z,80.60
2018-09-25T06:15:04.393Z,80.00
2018-09-25T06:17:38.204Z,79.60
2018-09-25T06:20:11.384Z,79.90
2018-09-25T06:22:45.416Z,79.10
2018-09-25T06:25:18.704Z,78.50
2018-09-25T06:27:52.180Z,77.80
2018-09-25T06:30:25.370Z,76.50
2018-09-25T06:32:58.803Z,75.90
2018-09-25T06:35:32.174Z,76.50
2018-09-25T06:38:08.290Z,76.10
2018-09-25T06:40:41.871Z,76.20
2018-09-25T06:43:15.412Z,76.60
2018-09-25T06:45:48.733Z,75.90
2018-09-25T06:48:22.189Z,75.00
2018-09-25T06:50:55.921Z,76.40
2018-09-25T06:53:29.260Z,76.20
2018-09-25T06:56:02.552Z,75.70
2018-09-25T06:58:36.893Z,76.50
2018-09-25T07:01:11.573Z,76.50
2018-09-25T07:03:44.885Z,76.40
2018-09-25T07:06:18.516Z,74.60
2018-09-25T07:08:52.134Z,74.40
2018-09-25T07:11:25.671Z,74.90
2018-09-25T07:13:58.840Z,75.10
2018-09-25T07:16:31.927Z,75.10
2018-09-25T07:19:05.133Z,75.60
2018-09-25T07:21:38.447Z,74.30
2018-09-25T07:24:11.752Z,75.40
2018-09-25T07:26:45.327Z,73.80
2018-09-25T07:29:18.918Z,73.00
2018-09-25T07:31:52.130Z,72.90
2018-09-25T07:34:25.407Z,73.40
2018-09-25T07:36:58.877Z,73.30
2018-09-25T07:39:32.013Z,72.70
2018-09-25T07:42:06.112Z,70.90
2018-09-25T07:44:39.695Z,70.50
2018-09-25T07:47:13.396Z,70.30
2018-09-25T07:49:46.819Z,70.70
2018-09-25T07:52:20.151Z,69.60
2018-09-25T07:54:53.704Z,68.90
2018-09-25T07:57:27.408Z,68.90
2018-09-25T08:00:00.648Z,68.80
2018-09-25T08:02:33.948Z,66.40
2018-09-25T08:05:07.072Z,66.40
2018-09-25T08:07:40.604Z,66.20
2018-09-25T08:10:13.800Z,67.00
2018-09-25T08:12:47.551Z,68.20
2018-09-25T08:15:20.701Z,68.80
2018-09-25T08:17:53.848Z,67.80
2018-09-25T08:20:26.992Z,67.50
2018-09-25T08:23:00.737Z,68.20
2018-09-25T08:25:34.702Z,68.30
2018-09-25T08:28:08.286Z,67.60
2018-09-25T08:30:41.484Z,67.20
2018-09-25T08:33:15.345Z,67.50
2018-09-25T08:35:48.876Z,68.20
2018-09-25T08:38:22.761Z,68.40
2018-09-25T08:40:56.591Z,66.90
2018-09-25T08:43:29.936Z,67.20
2018-09-25T08:46:03.225Z,66.80
2018-09-25T08:48:36.662Z,66.60
2018-09-25T08:51:09.828Z,66.40
2018-09-25T08:53:43.543Z,66.70
2018-09-25T08:56:17.068Z,66.70
2018-09-25T08:58:50.429Z,66.80
2018-09-25T09:01:23.740Z,66.30
2018-09-25T09:03:56.884Z,64.00
2018-09-25T09:06:31.360Z,64.80
2018-09-25T09:09:05.100Z,65.30
2018-09-25T09:11:39.783Z,63.20
2018-09-25T09:14:12.928Z,62.80
2018-09-25T09:16:46.207Z,61.80
2018-09-25T09:19:19.528Z,62.00
2018-09-25T09:21:53.269Z,62.10
2018-09-25T09:24:27.312Z,62.20
2018-09-25T09:27:01.241Z,61.60
2018-09-25T09:29:34.923Z,60.00
2018-09-25T09:32:09.031Z,59.70
2018-09-25T09:34:42.916Z,59.90
2018-09-25T09:37:16.140Z,58.20
2018-09-25T09:39:49.630Z,59.50
2018-09-25T09:42:22.780Z,59.00
2018-09-25T09:44:56.551Z,58.20
2018-09-25T09:47:30.244Z,59.60
2018-09-25T09:50:03.607Z,59.60
2018-09-25T09:52:37.767Z,59.60
2018-09-25T09:55:11.652Z,59.40
2018-09-25T09:57:44.897Z,59.20
2018-09-25T10:00:18.213Z,59.60
2018-09-25T10:02:51.515Z,59.20
2018-09-25T10:05:24.832Z,58.70
2018-09-25T10:07:58.339Z,57.80
2018-09-25T10:10:31.671Z,58.50
2018-09-25T10:13:06.123Z,58.60
2018-09-25T10:15:39.409Z,59.30
2018-09-25T10:18:12.739Z,58.50
2018-09-25T10:20:45.935Z,58.70
2018-09-25T10:23:19.676Z,58.90
2018-09-25T10:25:53.247Z,58.60
2018-09-25T10:28:27.794Z,57.50
2018-09-25T10:31:01.500Z,58.10
2018-09-25T10:33:34.775Z,58.80
2018-09-25T10:36:08.140Z,58.70
2018-09-25T10:38:41.532Z,56.70
2018-09-25T10:41:15.274Z,57.10
2018-09-25T10:43:52.350Z,56.40
2018-09-25T10:46:25.565Z,57.50
2018-09-25T10:48:59.158Z,56.20
2018-09-25T10:51:32.964Z,55.30
2018-09-25T10:54:06.201Z,54.60
2018-09-25T10:56:39.469Z,56.40
2018-09-25T10:59:12.800Z,55.90
2018-09-25T11:01:46.192Z,53.20
2018-09-25T11:04:19.516Z,55.80
2018-09-25T11:06:54.261Z,54.80
2018-09-25T11:09:27.493Z,55.20
2018-09-25T11:12:01.373Z,54.70
2018-09-25T11:14:41.775Z,54.30
2018-09-25T11:17:14.989Z,55.30
2018-09-25T11:19:48.258Z,54.30
2018-09-25T11:22:22.089Z,54.20
2018-09-25T11:24:56.013Z,55.60
2018-09-25T11:27:29.641Z,55.70
2018-09-25T11:30:02.871Z,56.50
2018-09-25T11:32:35.909Z,56.10
2018-09-25T11:35:09.159Z,55.00
2018-09-25T11:37:42.576Z,56.10
2018-09-25T11:40:15.997Z,55.60
2018-09-25T11:42:49.112Z,54.00
2018-09-25T11:45:22.812Z,54.10
2018-09-25T11:47:56.510Z,54.70
2018-09-25T11:50:29.812Z,55.10
2018-09-25T11:53:03.168Z,53.50
2018-09-25T11:55:36.910Z,55.10
2018-09-25T11:58:11.152Z,55.00
2018-09-25T12:00:44.612Z,53.60
2018-09-25T12:03:17.768Z,53.20
2018-09-25T12:05:51.060Z,54.10
2018-09-25T12:08:24.948Z,54.00
2018-09-25T12:10:58.985Z,54.80
2018-09-25T12:13:32.372Z,53.30
2018-09-25T12:16:05.696Z,51.40
2018-09-25T12:18:38.832Z,52.80
2018-09-25T12:21:12.840Z,52.00
2018-09-25T12:23:46.311Z,51.80
2018-09-25T12:26:20.336Z,49.80
2018-09-25T12:28:54.124Z,50.10
2018-09-25T12:31:27.484Z,50.40
2018-09-25T12:34:00.800Z,50.10
2018-09-25T12:36:34.048Z,49.90
2018-09-25T12:39:08.316Z,49.60
2018-09-25T12:41:41.572Z,50.40
2018-09-25T12:44:17.075Z,49.90
2018-09-25T12:46:50.820Z,48.50
2018-09-25T12:49:24.695Z,49.10
2018-09-25T12:51:58.194Z,48.20
2018-09-25T12:54:31.999Z,45.90
2018-09-25T12:57:05.540Z,48.40
2018-09-25T12:59:38.848Z,47.60
2018-09-25T13:02:12.848Z,49.50
2018-09-25T13:04:46.398Z,49.50
2018-09-25T13:07:20.133Z,50.30
2018-09-25T13:09:53.593Z,51.00
2018-09-25T13:12:27.492Z,49.60
2018-09-25T13:15:00.759Z,48.50
2018-09-25T13:17:34.071Z,49.80
2018-09-25T13:20:07.441Z,50.20
2018-09-25T13:22:42.032Z,49.20
2018-09-25T13:25:15.840Z,48.00
2018-09-25T13:27:49.784Z,49.20
2018-09-25T13:30:23.084Z,48.90
2018-09-25T13:32:56.317Z,49.70
2018-09-25T13:35:29.564Z,49.60
2018-09-25T13:38:02.904Z,50.30
2018-09-25T13:40:36.550Z,50.00
2018-09-25T13:43:10.757Z,50.50
2018-09-25T13:45:43.868Z,49.30
2018-09-25T13:48:17.445Z,50.90
2018-09-25T13:50:50.683Z,52.00
2018-09-25T13:53:23.705Z,53.20
2018-09-25T13:55:56.851Z,52.40
2018-09-25T13:58:30.271Z,52.70
2018-09-25T14:01:05.319Z,52.80
2018-09-25T14:03:38.589Z,53.10
2018-09-25T14:06:12.036Z,53.90
2018-09-25T14:08:45.687Z,51.80
2018-09-25T14:11:19.633Z,52.30
2018-09-25T14:13:52.900Z,52.90
2018-09-25T14:16:26.232Z,52.00
2018-09-25T14:18:59.945Z,51.00
2018-09-25T14:21:34.364Z,51.50
2018-09-25T14:24:07.616Z,51.20
2018-09-25T14:26:41.668Z,50.90
2018-09-25T14:29:15.300Z,49.30
2018-09-25T14:31:48.512Z,48.50
2018-09-25T14:34:21.791Z,49.30
2018-09-25T14:36:55.102Z,49.10
2018-09-25T14:39:30.594Z,50.40
2018-09-25T14:42:04.168Z,49.40
2018-09-25T14:44:37.335Z,50.80
2018-09-25T14:47:10.799Z,51.20
2018-09-25T14:49:44.237Z,50.20
2018-09-25T14:52:17.805Z,48.80
2018-09-25T14:54:51.143Z,46.50
2018-09-25T14:57:25.602Z,46.20
2018-09-25T14:59:58.805Z,44.60
2018-09-25T15:02:32.056Z,44.70
2018-09-25T15:05:05.696Z,44.00
2018-09-25T15:07:39.541Z,43.60
2018-09-25T15:10:12.718Z,43.10
2018-09-25T15:12:46.309Z,42.70
2018-09-25T15:15:19.653Z,42.90
2018-09-25T15:17:53.208Z,42.50
2018-09-25T15:20:28.348Z,43.40
2018-09-25T15:23:01.701Z,45.30
2018-09-25T15:25:35.309Z,47.00
2018-09-25T15:28:09.252Z,48.30
2018-09-25T15:30:42.446Z,49.30
2018-09-25T15:33:16.351Z,50.00
2018-09-25T15:35:50.116Z,50.50
2018-09-25T15:38:24.407Z,51.40
2018-09-25T15:40:57.762Z,52.00
2018-09-25T15:43:32.204Z,52.30
2018-09-25T15:46:05.872Z,53.20
2018-09-25T15:48:39.664Z,52.90
2018-09-25T15:51:12.832Z,53.60
2018-09-25T15:53:46.170Z,53.80
2018-09-25T15:56:19.647Z,54.20
2018-09-25T15:58:52.950Z,54.50
2018-09-25T16:01:26.040Z,54.20
2018-09-25T16:03:59.232Z,54.70
2018-09-25T16:06:33.167Z,54.70
2018-09-25T16:09:06.698Z,55.10
2018-09-25T16:11:40.256Z,55.30
2018-09-25T16:14:13.641Z,56.10
2018-09-25T16:16:46.911Z,57.10
2018-09-25T16:19:20.334Z,56.40
2018-09-25T16:21:53.649Z,57.00
2018-09-25T16:24:26.932Z,57.20
2018-09-25T16:27:01.352Z,57.40
2018-09-25T16:29:35.506Z,58.60
2018-09-25T16:32:08.818Z,59.10
2018-09-25T16:34:42.934Z,59.20
2018-09-25T16:37:17.535Z,59.10
2018-09-25T16:39:51.135Z,59.50
2018-09-25T16:42:25.948Z,60.50
2018-09-25T16:44:59.573Z,60.50
2018-09-25T16:47:33.362Z,60.20
2018-09-25T16:50:06.741Z,62.90
2018-09-25T16:52:40.224Z,60.90
2018-09-25T16:55:14.016Z,62.30
2018-09-25T16:57:48.400Z,62.30
2018-09-25T17:00:22.020Z,64.00
2018-09-25T17:02:55.628Z,68.70
2018-09-25T17:05:28.919Z,72.90
2018-09-25T17:08:02.623Z,65.50
2018-09-25T17:10:35.900Z,68.60
2018-09-25T17:13:10.020Z,68.30
2018-09-25T17:15:43.116Z,67.80
2018-09-25T17:18:16.367Z,69.30
2018-09-25T17:20:49.521Z,70.80
2018-09-25T17:23:22.956Z,69.80
2018-09-25T17:25:56.325Z,69.40
2018-09-25T17:28:30.120Z,69.10
2018-09-25T17:31:03.432Z,66.40
2018-09-25T17:33:37.099Z,67.70
2018-09-25T17:36:10.329Z,69.60
2018-09-25T17:38:43.573Z,69.80
2018-09-25T17:41:16.816Z,68.30
2018-09-25T17:43:52.504Z,68.70
2018-09-25T17:46:25.749Z,68.70
2018-09-25T17:48:59.239Z,69.60
2018-09-25T17:51:32.395Z,72.70
2018-09-25T17:54:06.309Z,75.80
2018-09-25T17:56:40.468Z,72.20
2018-09-25T17:59:14.724Z,70.70
2018-09-25T18:01:49.825Z,72.80
2018-09-25T18:04:22.990Z,72.90
2018-09-25T18:06:56.611Z,72.80
2018-09-25T18:09:30.265Z,73.00
2018-09-25T18:12:03.992Z,73.20
2018-09-25T18:14:37.332Z,72.90
2018-09-25T18:17:10.647Z,72.70
2018-09-25T18:19:43.814Z,74.30
2018-09-25T18:22:17.178Z,74.70
2018-09-25T18:24:50.553Z,75.50
2018-09-25T18:27:24.412Z,75.70
2018-09-25T18:29:58.277Z,75.70
2018-09-25T18:32:31.992Z,81.30
2018-09-25T18:35:05.701Z,77.10
2018-09-25T18:37:38.799Z,77.10
2018-09-25T18:40:12.606Z,76.30
2018-09-25T18:42:46.431Z,77.50
2018-09-25T18:45:19.637Z,78.90
2018-09-25T18:47:53.797Z,77.00
2018-09-25T18:50:27.043Z,77.20
2018-09-25T18:53:00.284Z,77.70
2018-09-25T18:55:33.509Z,76.90
2018-09-25T18:58:08.539Z,77.60
2018-09-25T19:00:42.311Z,77.40
2018-09-25T19:03:16.677Z,78.20
2018-09-25T19:05:49.796Z,83.00
2018-09-25T19:08:23.537Z,86.20
2018-09-25T19:10:57.111Z,81.20
2018-09-25T19:13:30.524Z,80.40
2018-09-25T19:16:04.750Z,78.40
2018-09-25T19:18:38.093Z,77.20
2018-09-25T19:21:11.310Z,80.50
2018-09-25T19:23:45.157Z,86.50
2018-09-25T19:26:18.448Z,81.90
2018-09-25T19:28:52.176Z,81.00
2018-09-25T19:31:25.229Z,81.70
2018-09-25T19:33:59.039Z,81.90
2018-09-25T19:36:32.808Z,82.00
2018-09-25T19:39:06.569Z,80.90
2018-09-25T19:41:40.624Z,77.90
2018-09-25T19:44:14.102Z,80.70
2018-09-25T19:46:47.816Z,82.00
2018-09-25T19:49:21.616Z,82.80
2018-09-25T19:51:54.814Z,83.00
2018-09-25T19:54:28.567Z,82.90
2018-09-25T19:57:02.330Z,83.90
2018-09-25T19:59:35.547Z,83.80
2018-09-25T20:02:08.884Z,83.20
2018-09-25T20:04:42.476Z,86.10
2018-09-25T20:07:16.686Z,83.40
2018-09-25T20:09:51.050Z,84.10
2018-09-25T20:12:24.719Z,79.60
2018-09-25T20:14:58.053Z,81.70
2018-09-25T20:17:31.552Z,82.80
2018-09-25T20:20:04.700Z,84.50
2018-09-25T20:22:37.901Z,85.30
2018-09-25T20:25:12.184Z,84.80
2018-09-25T20:27:46.724Z,85.30
2018-09-25T20:30:19.776Z,86.00
2018-09-25T20:32:53.093Z,86.10
2018-09-25T20:35:27.500Z,86.50
2018-09-25T20:38:00.808Z,85.10
2018-09-25T20:40:34.119Z,83.30
2018-09-25T20:43:07.313Z,86.20
2018-09-25T20:45:41.865Z,83.60
2018-09-25T20:48:15.882Z,86.60
2018-09-25T20:50:49.623Z,86.10
2018-09-25T20:53:23.286Z,90.30
2018-09-25T20:55:56.409Z,94.40
2018-09-25T20:58:29.744Z,86.00
2018-09-25T21:01:03.527Z,91.80
2018-09-25T21:03:38.462Z,92.30
2018-09-25T21:06:11.487Z,95.60
2018-09-25T21:08:46.303Z,89.50
2018-09-25T21:11:19.908Z,92.30
2018-09-25T21:13:53.012Z,93.30
2018-09-25T21:16:26.404Z,87.30
2018-09-25T21:18:59.660Z,88.60
2018-09-25T21:21:34.139Z,94.10
2018-09-25T21:24:08.133Z,87.50
2018-09-25T21:26:41.347Z,84.40
2018-09-25T21:29:15.408Z,86.70
2018-09-25T21:31:48.895Z,87.90
2018-09-25T21:34:24.588Z,90.60
2018-09-25T21:36:57.878Z,88.90
2018-09-25T21:39:31.098Z,93.10
2018-09-25T21:42:05.637Z,94.40
2018-09-25T21:44:39.151Z,95.10
2018-09-25T21:47:13.143Z,92.00
2018-09-25T21:49:46.783Z,89.40
2018-09-25T21:52:20.643Z,90.60
2018-09-25T21:54:54.341Z,92.20
2018-09-25T21:57:28.200Z,94.00
2018-09-25T22:00:02.369Z,90.40
2018-09-25T22:02:35.591Z,91.40
2018-09-25T22:05:08.975Z,90.90
2018-09-25T22:07:44.079Z,85.80
2018-09-25T22:10:19.319Z,84.40
2018-09-25T22:12:53.047Z,87.80
2018-09-25T22:15:26.147Z,87.30
2018-09-25T22:17:59.526Z,85.90
2018-09-25T22:20:33.335Z,86.70
2018-09-25T22:23:07.244Z,89.00
2018-09-25T22:25:40.374Z,90.00
2018-09-25T22:28:14.045Z,89.50
2018-09-25T22:30:47.239Z,90.60
2018-09-25T22:33:20.734Z,89.20
2018-09-25T22:35:53.717Z,90.70
2018-09-25T22:38:26.951Z,89.20
2018-09-25T22:41:01.519Z,89.90
2018-09-25T22:43:34.759Z,88.00
2018-09-25T22:46:08.305Z,90.60
2018-09-25T22:48:42.311Z,91.40
2018-09-25T22:51:15.726Z,90.30
2018-09-25T22:53:49.494Z,91.60
2018-09-25T22:56:22.663Z,90.60
2018-09-25T22:58:57.035Z,94.30
2018-09-25T23:01:30.279Z,93.10
2018-09-25T23:04:04.056Z,92.00
2018-09-25T23:06:37.381Z,91.70
2018-09-25T23:09:13.351Z,95.90
2018-09-25T23:11:47.391Z,92.70
2018-09-25T23:14:21.805Z,93.50
2018-09-25T23:16:55.637Z,90.10
2018-09-25T23:19:29.412Z,91.80
2018-09-25T23:22:02.679Z,96.60
2018-09-25T23:24:35.928Z,93.30
2018-09-25T23:27:09.550Z,94.00
2018-09-25T23:29:42.767Z,88.40
2018-09-25T23:32:16.221Z,92.30
2018-09-25T23:34:51.564Z,91.10
2018-09-25T23:37:24.933Z,88.20
2018-09-25T23:40:00.522Z,91.60
2018-09-25T23:42:35.049Z,91.60
2018-09-25T23:45:08.541Z,96.30
2018-09-25T23:47:42.831Z,91.30
2018-09-25T23:50:25.763Z,90.10
2018-09-25T23:53:01.037Z,90.40
2018-09-25T23:55:33.975Z,93.10
2018-09-25T23:58:06.595Z,92.50
